createdAt,value
2022-09-15T00:00:06.417Z,89.45
2022-09-15T00:02:38.413Z,89.15
2022-09-15T00:05:12.334Z,89.21
2022-09-15T00:07:46.321Z,88.97
2022-09-15T00:10:19.322Z,88.90
2022-09-15T00:19:58.421Z,88.66
2022-09-15T00:22:29.154Z,88.43
2022-09-15T00:24:59.486Z,88.16
2022-09-15T00:27:29.792Z,88.29
2022-09-15T00:30:00.098Z,88.29
2022-09-15T00:32:30.647Z,88.55
2022-09-15T00:35:01.355Z,88.51
2022-09-15T00:37:31.819Z,88.53
2022-09-15T00:40:02.668Z,89.11
2022-09-15T00:42:33.059Z,89.36
2022-09-15T00:45:12.018Z,89.11
2022-09-15T00:47:42.663Z,88.91
2022-09-15T00:50:16.305Z,88.92
2022-09-15T00:52:49.681Z,89.08
2022-09-15T00:55:23.075Z,89.22
2022-09-15T00:57:55.927Z,88.89
2022-09-15T01:00:28.858Z,88.80
2022-09-15T01:02:59.764Z,89.03
2022-09-15T01:05:33.078Z,89.01
2022-09-15T01:08:06.889Z,88.97
2022-09-15T01:10:39.589Z,88.55
2022-09-15T01:13:09.010Z,88.03
2022-09-15T01:15:47.234Z,88.22
2022-09-15T01:18:22.014Z,88.35
2022-09-15T01:21:13.234Z,88.45
2022-09-15T01:24:05.377Z,88.73
2022-09-15T01:26:54.696Z,88.81
2022-09-15T01:29:48.109Z,89.27
2022-09-15T01:32:38.811Z,89.68
2022-09-15T01:35:14.581Z,89.34
2022-09-15T01:37:50.285Z,89.32
2022-09-15T01:40:21.223Z,89.40
2022-09-15T01:42:52.587Z,89.75
2022-09-15T01:45:26.040Z,90.04
2022-09-15T01:47:58.168Z,90.56
2022-09-15T01:50:33.235Z,90.40
2022-09-15T01:53:05.286Z,90.32
2022-09-15T01:55:39.890Z,90.25
2022-09-15T01:58:10.564Z,90.15
2022-09-15T02:00:44.938Z,90.18
2022-09-15T02:03:19.883Z,90.38
2022-09-15T02:05:54.000Z,90.26
2022-09-15T02:08:29.648Z,90.45
2022-09-15T02:11:08.057Z,90.46
2022-09-15T02:13:48.563Z,90.16
2022-09-15T02:16:21.854Z,90.13
2022-09-15T02:19:08.835Z,90.16
2022-09-15T02:21:45.631Z,90.00
2022-09-15T02:24:19.609Z,90.03
2022-09-15T02:26:51.959Z,90.03
2022-09-15T02:29:23.927Z,89.78
2022-09-15T02:31:56.372Z,89.95
2022-09-15T02:34:30.559Z,90.20
2022-09-15T02:37:01.355Z,90.17
2022-09-15T02:39:34.268Z,90.11
2022-09-15T02:42:04.941Z,90.04
2022-09-15T02:44:35.328Z,90.03
2022-09-15T02:47:06.211Z,90.11
2022-09-15T02:49:36.664Z,90.43
2022-09-15T02:52:07.359Z,90.65
2022-09-15T02:54:37.922Z,90.74
2022-09-15T02:57:09.137Z,90.74
2022-09-15T03:00:11.643Z,90.40
2022-09-15T03:02:42.488Z,90.30
2022-09-15T03:05:13.509Z,90.45
2022-09-15T03:07:44.189Z,90.21
2022-09-15T03:10:16.030Z,90.18
2022-09-15T03:12:49.263Z,90.19
2022-09-15T03:15:21.452Z,90.28
2022-09-15T03:17:52.064Z,90.25
2022-09-15T03:20:25.918Z,90.21
2022-09-15T03:22:56.898Z,90.19
2022-09-15T03:25:27.792Z,90.27
2022-09-15T03:27:58.238Z,90.33
2022-09-15T03:30:28.581Z,90.56
2022-09-15T03:32:59.017Z,90.74
2022-09-15T03:35:29.353Z,90.69
2022-09-15T03:37:59.691Z,91.01
2022-09-15T03:40:30.745Z,91.00
2022-09-15T03:43:01.525Z,90.98
2022-09-15T03:45:32.014Z,90.76
2022-09-15T03:48:02.565Z,90.63
2022-09-15T03:50:33.115Z,90.99
2022-09-15T03:53:04.056Z,91.32
2022-09-15T03:55:34.382Z,91.56
2022-09-15T03:58:04.750Z,91.50
2022-09-15T04:00:35.246Z,90.98
2022-09-15T04:03:06.743Z,90.65
2022-09-15T04:05:38.505Z,90.09
2022-09-15T04:08:10.777Z,90.19
2022-09-15T04:10:42.289Z,90.05
2022-09-15T04:13:12.780Z,89.91
2022-09-15T04:15:44.170Z,89.74
2022-09-15T04:18:14.867Z,89.54
2022-09-15T04:20:45.360Z,89.39
2022-09-15T04:23:16.640Z,89.31
2022-09-15T04:25:46.939Z,89.38
2022-09-15T04:28:17.265Z,89.46
2022-09-15T04:30:47.635Z,89.54
2022-09-15T04:33:18.081Z,89.36
2022-09-15T04:35:48.988Z,89.23
2022-09-15T04:38:19.389Z,89.00
2022-09-15T04:40:49.886Z,88.52
2022-09-15T04:43:20.276Z,87.83
2022-09-15T04:45:50.660Z,87.44
2022-09-15T04:48:26.203Z,87.34
2022-09-15T04:51:01.219Z,87.54
2022-09-15T04:53:31.630Z,87.49
2022-09-15T04:56:07.347Z,87.37
2022-09-15T04:58:39.946Z,87.02
2022-09-15T05:01:13.295Z,86.18
2022-09-15T05:03:44.303Z,85.60
2022-09-15T05:21:03.312Z,86.96
2022-09-15T05:23:34.108Z,86.80
2022-09-15T05:26:05.750Z,86.93
2022-09-15T05:28:37.727Z,86.96
2022-09-15T05:31:12.538Z,86.88
2022-09-15T05:33:43.190Z,87.07
2022-09-15T05:36:14.969Z,87.35
2022-09-15T05:38:45.806Z,87.49
2022-09-15T05:41:18.287Z,87.42
2022-09-15T05:43:49.704Z,86.86
2022-09-15T05:46:21.203Z,86.81
2022-09-15T05:48:51.642Z,86.83
2022-09-15T05:51:22.919Z,86.91
2022-09-15T05:53:53.300Z,86.91
2022-09-15T05:56:23.728Z,86.88
2022-09-15T05:58:54.084Z,86.91
2022-09-15T06:01:26.642Z,87.09
2022-09-15T06:04:00.630Z,86.99
2022-09-15T06:06:33.530Z,86.76
2022-09-15T06:09:28.014Z,86.91
2022-09-15T06:11:58.703Z,86.85
2022-09-15T06:14:29.077Z,86.65
2022-09-15T06:16:59.693Z,86.39
2022-09-15T06:19:30.297Z,85.57
2022-09-15T06:22:00.595Z,85.28
2022-09-15T06:24:31.006Z,85.47
2022-09-15T06:27:01.409Z,85.41
2022-09-15T06:29:33.350Z,85.05
2022-09-15T06:32:05.098Z,84.90
2022-09-15T06:34:35.574Z,84.09
2022-09-15T06:37:06.039Z,84.51
2022-09-15T06:39:36.323Z,84.70
2022-09-15T06:42:07.122Z,84.11
2022-09-15T06:44:38.330Z,83.82
2022-09-15T06:47:10.526Z,83.87
2022-09-15T06:49:40.888Z,84.53
2022-09-15T06:52:11.311Z,84.86
2022-09-15T06:54:41.801Z,84.77
2022-09-15T06:57:12.313Z,84.46
2022-09-15T06:59:42.777Z,84.40
2022-09-15T07:02:13.149Z,83.92
2022-09-15T07:04:44.163Z,83.68
2022-09-15T07:07:14.528Z,83.98
2022-09-15T07:09:48.823Z,83.12
2022-09-15T07:12:19.507Z,83.12
2022-09-15T07:14:49.826Z,82.47
2022-09-15T07:17:20.194Z,82.25
2022-09-15T07:19:50.680Z,82.72
2022-09-15T07:22:21.150Z,82.94
2022-09-15T07:24:51.664Z,83.20
2022-09-15T07:27:26.079Z,82.49
2022-09-15T07:29:56.492Z,82.47
2022-09-15T07:32:27.165Z,82.95
2022-09-15T07:34:58.504Z,82.94
2022-09-15T07:37:29.003Z,81.82
2022-09-15T07:39:59.450Z,80.67
2022-09-15T07:42:33.387Z,79.83
2022-09-15T07:45:06.581Z,79.03
2022-09-15T07:47:36.894Z,78.14
2022-09-15T07:50:08.934Z,77.57
2022-09-15T07:52:39.224Z,77.59
2022-09-15T07:55:10.622Z,77.07
2022-09-15T07:57:40.945Z,76.69
2022-09-15T08:00:14.978Z,76.78
2022-09-15T08:02:45.422Z,76.12
2022-09-15T08:05:15.995Z,75.73
2022-09-15T08:07:46.552Z,75.82
2022-09-15T08:10:17.887Z,75.52
2022-09-15T08:12:48.335Z,75.13
2022-09-15T08:15:19.120Z,75.60
2022-09-15T08:17:49.537Z,75.81
2022-09-15T08:20:21.378Z,75.96
2022-09-15T08:22:51.793Z,76.43
2022-09-15T08:25:22.246Z,76.79
2022-09-15T08:27:52.574Z,76.79
2022-09-15T08:30:23.690Z,76.98
2022-09-15T08:32:54.041Z,76.63
2022-09-15T08:35:24.452Z,76.43
2022-09-15T08:37:56.896Z,75.63
2022-09-15T08:40:30.042Z,75.68
2022-09-15T08:43:04.893Z,76.00
2022-09-15T08:45:41.934Z,75.35
2022-09-15T08:48:15.715Z,74.57
2022-09-15T08:50:48.325Z,74.01
2022-09-15T08:53:17.820Z,71.72
2022-09-15T08:55:51.399Z,71.04
2022-09-15T08:58:24.051Z,68.85
2022-09-15T09:00:58.963Z,67.48
2022-09-15T09:03:38.995Z,66.28
2022-09-15T09:06:14.679Z,65.03
2022-09-15T09:09:00.191Z,63.23
2022-09-15T09:11:43.204Z,62.15
2022-09-15T09:14:20.458Z,61.26
2022-09-15T09:17:02.742Z,60.52
2022-09-15T09:19:43.281Z,60.15
2022-09-15T09:22:16.784Z,58.83
2022-09-15T09:24:48.815Z,58.79
2022-09-15T09:27:20.976Z,57.45
2022-09-15T09:29:52.976Z,56.53
2022-09-15T09:32:26.201Z,57.02
2022-09-15T09:35:02.992Z,57.87
2022-09-15T09:37:33.413Z,58.19
2022-09-15T09:40:04.740Z,58.01
2022-09-15T09:42:37.107Z,57.70
2022-09-15T09:45:07.471Z,57.16
2022-09-15T09:47:38.751Z,56.69
2022-09-15T09:50:33.496Z,54.03
2022-09-15T09:53:20.668Z,54.61
2022-09-15T09:55:51.067Z,53.35
2022-09-15T09:58:24.167Z,52.55
2022-09-15T10:00:55.199Z,51.63
2022-09-15T10:03:30.748Z,51.55
2022-09-15T10:06:07.884Z,51.49
2022-09-15T10:08:39.069Z,50.94
2022-09-15T10:11:11.119Z,50.71
2022-09-15T10:13:53.650Z,49.40
2022-09-15T10:16:24.379Z,48.50
2022-09-15T10:18:59.987Z,48.69
2022-09-15T10:21:30.426Z,47.96
2022-09-15T10:24:10.258Z,47.97
2022-09-15T10:26:42.010Z,47.57
2022-09-15T10:29:17.741Z,45.53
2022-09-15T10:31:49.129Z,44.22
2022-09-15T10:34:31.375Z,45.15
2022-09-15T10:37:09.545Z,43.91
2022-09-15T10:39:49.424Z,42.50
2022-09-15T10:42:29.563Z,43.56
2022-09-15T10:45:08.042Z,42.04
2022-09-15T10:47:46.027Z,41.78
2022-09-15T10:50:20.753Z,41.65
2022-09-15T10:53:05.974Z,42.45
2022-09-15T10:55:52.981Z,41.98
2022-09-15T10:58:52.364Z,41.49
2022-09-15T11:01:35.081Z,41.68
2022-09-15T11:04:25.381Z,42.73
2022-09-15T11:07:00.276Z,44.07
2022-09-15T11:09:33.269Z,44.65
2022-09-15T11:12:16.625Z,45.60
2022-09-15T11:14:59.197Z,45.03
2022-09-15T11:17:49.852Z,44.95
2022-09-15T11:20:33.573Z,45.23
2022-09-15T11:23:06.607Z,45.01
2022-09-15T11:25:39.869Z,46.02
2022-09-15T11:28:15.381Z,46.17
2022-09-15T11:30:57.104Z,46.34
2022-09-15T11:33:30.394Z,46.22
2022-09-15T11:36:03.939Z,46.79
2022-09-15T11:38:40.428Z,46.45
2022-09-15T11:41:20.395Z,45.97
2022-09-15T11:44:00.120Z,44.60
2022-09-15T11:46:43.487Z,43.40
2022-09-15T11:49:18.311Z,41.28
2022-09-15T11:51:53.760Z,43.67
2022-09-15T11:54:31.021Z,43.91
2022-09-15T11:57:02.076Z,44.47
2022-09-15T11:59:39.944Z,45.19
2022-09-15T12:02:20.161Z,45.06
2022-09-15T12:05:03.242Z,44.74
2022-09-15T12:07:36.445Z,45.47
2022-09-15T12:10:17.694Z,46.56
2022-09-15T12:12:48.764Z,47.99
2022-09-15T12:15:27.080Z,49.36
2022-09-15T12:18:06.569Z,48.69
2022-09-15T12:20:44.436Z,50.01
2022-09-15T12:23:25.218Z,50.69
2022-09-15T12:26:06.305Z,51.22
2022-09-15T12:28:52.179Z,51.94
2022-09-15T12:31:36.719Z,53.24
2022-09-15T12:34:29.450Z,53.30
2022-09-15T12:37:09.452Z,53.50
2022-09-15T12:39:42.378Z,53.21
2022-09-15T12:42:21.421Z,53.58
2022-09-15T12:44:55.139Z,53.21
2022-09-15T12:47:29.454Z,53.05
2022-09-15T12:50:03.583Z,52.91
2022-09-15T12:52:35.365Z,52.91
2022-09-15T12:55:06.815Z,52.46
2022-09-15T12:57:38.882Z,52.46
2022-09-15T13:00:34.678Z,51.83
2022-09-15T13:03:05.914Z,51.55
2022-09-15T13:05:55.593Z,50.53
2022-09-15T13:08:46.751Z,49.86
2022-09-15T13:11:20.455Z,49.45
2022-09-15T13:13:54.220Z,49.45
2022-09-15T13:16:30.566Z,49.01
2022-09-15T13:19:11.893Z,48.15
2022-09-15T13:21:44.474Z,47.31
2022-09-15T13:24:18.649Z,46.99
2022-09-15T13:26:52.270Z,46.10
2022-09-15T13:29:24.399Z,44.80
2022-09-15T13:31:59.422Z,42.12
2022-09-15T13:35:08.215Z,39.82
2022-09-15T13:38:26.294Z,38.54
2022-09-15T13:41:42.858Z,39.96
2022-09-15T13:44:38.879Z,41.71
2022-09-15T13:47:21.029Z,42.64
2022-09-15T13:50:05.941Z,43.17
2022-09-15T13:53:12.661Z,44.28
2022-09-15T13:55:43.865Z,44.36
2022-09-15T14:01:06.901Z,44.88
2022-09-15T14:03:43.422Z,44.45
2022-09-15T14:06:16.883Z,43.75
2022-09-15T14:08:49.957Z,44.17
2022-09-15T14:11:25.764Z,44.05
2022-09-15T14:13:56.757Z,44.51
2022-09-15T14:16:35.200Z,45.27
2022-09-15T14:19:22.708Z,45.30
2022-09-15T14:21:58.313Z,45.10
2022-09-15T14:24:31.039Z,44.88
2022-09-15T14:27:08.501Z,45.84
2022-09-15T14:29:41.539Z,45.92
2022-09-15T14:32:14.283Z,45.81
2022-09-15T14:34:45.648Z,46.19
2022-09-15T14:37:20.897Z,46.03
2022-09-15T14:39:56.633Z,46.32
2022-09-15T14:42:32.315Z,47.09
2022-09-15T14:48:09.368Z,47.74
2022-09-15T14:50:40.051Z,48.27
2022-09-15T14:53:16.190Z,48.36
2022-09-15T14:55:53.416Z,49.12
2022-09-15T14:58:26.969Z,49.11
2022-09-15T15:01:02.588Z,49.49
2022-09-15T15:03:39.222Z,50.27
2022-09-15T15:09:01.732Z,50.09
2022-09-15T15:11:33.760Z,50.69
2022-09-15T15:14:05.809Z,50.78
2022-09-15T15:16:36.595Z,51.47
2022-09-15T15:19:06.982Z,52.02
2022-09-15T15:21:45.055Z,52.01
2022-09-15T15:24:22.909Z,52.36
2022-09-15T15:26:53.323Z,52.14
2022-09-15T15:29:43.833Z,51.69
2022-09-15T15:32:16.108Z,51.84
2022-09-15T15:34:53.727Z,51.64
2022-09-15T15:37:29.725Z,52.60
2022-09-15T15:40:03.918Z,52.03
2022-09-15T15:42:34.356Z,52.45
2022-09-15T15:45:20.859Z,52.29
2022-09-15T15:47:51.245Z,52.10
2022-09-15T15:50:23.647Z,52.21
2022-09-15T15:52:54.718Z,51.92
2022-09-15T15:55:27.776Z,51.84
2022-09-15T15:57:58.418Z,51.77
2022-09-15T16:00:33.437Z,52.29
2022-09-15T16:03:04.113Z,52.01
2022-09-15T16:05:35.021Z,51.66
2022-09-15T16:08:07.724Z,51.94
2022-09-15T16:10:39.430Z,51.48
2022-09-15T16:13:10.252Z,51.85
2022-09-15T16:15:40.552Z,51.95
2022-09-15T16:18:11.316Z,52.42
2022-09-15T16:20:42.312Z,53.17
2022-09-15T16:23:16.362Z,53.24
2022-09-15T16:25:50.713Z,53.47
2022-09-15T16:28:21.016Z,53.78
2022-09-15T16:30:51.392Z,53.85
2022-09-15T16:33:21.920Z,53.98
2022-09-15T16:35:55.031Z,54.12
2022-09-15T16:38:28.110Z,53.89
2022-09-15T16:40:58.533Z,54.06
2022-09-15T16:43:28.925Z,54.48
2022-09-15T16:45:59.538Z,54.85
2022-09-15T16:48:29.818Z,55.25
2022-09-15T16:51:23.074Z,55.37
2022-09-15T16:53:52.019Z,55.61
2022-09-15T16:56:22.367Z,55.42
2022-09-15T16:58:58.748Z,55.39
2022-09-15T17:01:29.378Z,55.83
2022-09-15T17:04:00.513Z,56.39
2022-09-15T17:06:31.038Z,55.89
2022-09-15T17:09:01.443Z,56.11
2022-09-15T17:11:31.868Z,56.35
2022-09-15T17:14:02.247Z,56.62
2022-09-15T17:16:32.606Z,56.58
2022-09-15T17:19:02.980Z,57.02
2022-09-15T17:21:33.745Z,56.86
2022-09-15T17:24:04.536Z,56.61
2022-09-15T17:26:35.284Z,56.83
2022-09-15T17:29:06.591Z,57.62
2022-09-15T17:31:36.991Z,58.14
2022-09-15T17:34:09.785Z,57.79
2022-09-15T17:36:38.663Z,58.11
2022-09-15T17:39:09.022Z,58.85
2022-09-15T17:41:39.594Z,58.62
2022-09-15T17:44:12.872Z,58.76
2022-09-15T17:46:43.347Z,58.75
2022-09-15T17:49:13.915Z,58.91
2022-09-15T17:51:44.341Z,58.98
2022-09-15T17:54:14.716Z,59.20
2022-09-15T17:56:45.025Z,59.05
2022-09-15T17:59:16.337Z,59.06
2022-09-15T18:01:46.905Z,59.08
2022-09-15T18:04:17.536Z,59.71
2022-09-15T18:06:48.320Z,60.18
2022-09-15T18:09:18.677Z,60.15
2022-09-15T18:11:49.067Z,60.67
2022-09-15T18:14:19.830Z,61.29
2022-09-15T18:16:50.212Z,61.61
2022-09-15T18:19:21.221Z,62.09
2022-09-15T18:21:54.783Z,62.51
2022-09-15T18:24:25.196Z,62.80
2022-09-15T18:26:56.352Z,62.92
2022-09-15T18:29:26.759Z,63.29
2022-09-15T18:31:59.237Z,63.67
2022-09-15T18:34:29.849Z,63.68
2022-09-15T18:37:01.238Z,64.22
2022-09-15T18:39:31.654Z,64.75
2022-09-15T18:42:02.017Z,65.27
2022-09-15T18:44:32.885Z,65.41
2022-09-15T18:47:03.455Z,65.58
2022-09-15T18:49:34.185Z,65.75
2022-09-15T18:52:05.318Z,66.18
2022-09-15T18:54:36.926Z,66.51
2022-09-15T18:57:07.446Z,66.83
2022-09-15T18:59:38.819Z,67.00
2022-09-15T19:02:11.658Z,67.16
2022-09-15T19:04:42.658Z,67.12
2022-09-15T19:07:13.745Z,67.53
2022-09-15T19:09:44.320Z,67.51
2022-09-15T19:12:14.924Z,67.14
2022-09-15T19:14:46.708Z,67.99
2022-09-15T19:17:17.285Z,68.36
2022-09-15T19:19:47.594Z,68.85
2022-09-15T19:22:18.112Z,68.77
2022-09-15T19:24:48.644Z,68.88
2022-09-15T19:27:19.494Z,68.71
2022-09-15T19:29:50.155Z,68.91
2022-09-15T19:32:22.118Z,69.17
2022-09-15T19:34:52.802Z,69.61
2022-09-15T19:37:24.005Z,69.96
2022-09-15T19:39:54.699Z,70.30
2022-09-15T19:42:25.092Z,70.77
2022-09-15T19:44:55.425Z,70.54
2022-09-15T19:47:25.738Z,70.48
2022-09-15T19:49:56.199Z,70.61
2022-09-15T19:52:27.512Z,70.48
2022-09-15T19:54:58.108Z,70.55
2022-09-15T19:57:28.623Z,70.99
2022-09-15T19:59:58.940Z,71.49
2022-09-15T20:02:29.296Z,71.55
2022-09-15T20:04:59.680Z,71.52
2022-09-15T20:07:30.003Z,71.42
2022-09-15T20:10:00.470Z,71.60
2022-09-15T20:12:31.124Z,71.96
2022-09-15T20:15:01.434Z,71.30
2022-09-15T20:17:31.753Z,70.47
2022-09-15T20:20:02.292Z,70.52
2022-09-15T20:22:32.608Z,70.29
2022-09-15T20:25:02.944Z,69.93
2022-09-15T20:27:33.666Z,69.68
2022-09-15T20:30:04.316Z,69.58
2022-09-15T20:32:34.627Z,69.58
2022-09-15T20:35:05.259Z,69.51
2022-09-15T20:37:37.631Z,69.24
2022-09-15T20:40:09.444Z,69.25
2022-09-15T20:42:40.292Z,69.13
2022-09-15T20:45:12.184Z,69.00
2022-09-15T20:47:42.472Z,69.04
2022-09-15T20:50:12.885Z,69.18
2022-09-15T20:52:44.401Z,69.12
2022-09-15T20:55:14.818Z,69.13
2022-09-15T20:57:45.158Z,69.16
2022-09-15T21:00:17.135Z,69.28
2022-09-15T21:02:51.336Z,69.39
2022-09-15T21:05:21.645Z,69.43
2022-09-15T21:07:52.033Z,69.61
2022-09-15T21:10:24.935Z,69.36
2022-09-15T21:12:54.814Z,69.35
2022-09-15T21:15:25.378Z,69.17
2022-09-15T21:17:55.749Z,69.25
2022-09-15T21:20:26.106Z,69.26
2022-09-15T21:22:57.552Z,69.03
2022-09-15T21:25:28.057Z,69.02
2022-09-15T21:27:58.325Z,68.70
2022-09-15T21:30:28.712Z,68.66
2022-09-15T21:32:59.308Z,68.42
2022-09-15T21:35:29.703Z,68.41
2022-09-15T21:38:00.776Z,68.30
2022-09-15T21:40:31.243Z,68.08
2022-09-15T21:43:01.579Z,68.10
2022-09-15T21:45:32.315Z,68.22
2022-09-15T21:48:02.895Z,67.98
2022-09-15T21:50:33.389Z,67.76
2022-09-15T21:53:03.698Z,67.81
2022-09-15T21:55:38.223Z,67.53
2022-09-15T21:58:08.584Z,67.83
2022-09-15T22:00:40.199Z,67.60
2022-09-15T22:03:11.208Z,67.76
2022-09-15T22:05:43.849Z,67.64
2022-09-15T22:08:15.102Z,67.54
2022-09-15T22:10:47.846Z,67.82
2022-09-15T22:13:18.160Z,67.80
2022-09-15T22:15:48.437Z,67.67
2022-09-15T22:18:18.743Z,67.76
2022-09-15T22:20:49.164Z,67.83
2022-09-15T22:23:19.482Z,67.79
2022-09-15T22:25:49.775Z,67.70
2022-09-15T22:28:20.132Z,67.65
2022-09-15T22:30:50.479Z,67.73
2022-09-15T22:33:20.714Z,67.60
2022-09-15T22:35:51.018Z,67.62
2022-09-15T22:38:21.465Z,67.78
2022-09-15T22:40:51.913Z,67.63
2022-09-15T22:43:22.148Z,67.91
2022-09-15T22:45:54.025Z,67.85
2022-09-15T22:48:24.332Z,67.88
2022-09-15T22:50:54.784Z,67.82
2022-09-15T22:53:25.312Z,67.79
2022-09-15T22:56:06.103Z,68.00
2022-09-15T22:58:37.405Z,68.18
2022-09-15T23:01:10.432Z,68.09
2022-09-15T23:03:41.248Z,68.09
2022-09-15T23:06:11.841Z,68.13
2022-09-15T23:08:42.259Z,68.19
2022-09-15T23:11:13.697Z,67.83
2022-09-15T23:13:44.293Z,67.99
2022-09-15T23:16:14.726Z,67.90
2022-09-15T23:18:45.091Z,68.00
2022-09-15T23:21:15.779Z,68.04
2022-09-15T23:23:48.772Z,67.99
2022-09-15T23:26:21.411Z,68.03
2022-09-15T23:28:51.724Z,68.10
2022-09-15T23:31:22.498Z,68.19
2022-09-15T23:33:52.871Z,68.39
2022-09-15T23:36:23.213Z,68.34
2022-09-15T23:38:53.625Z,68.34
2022-09-15T23:41:24.644Z,68.48
2022-09-15T23:43:55.472Z,68.29
2022-09-15T23:46:25.796Z,68.21
2022-09-15T23:48:56.102Z,68.58
2022-09-15T23:51:29.639Z,68.43
2022-09-15T23:54:01.433Z,68.45
2022-09-15T23:56:33.724Z,68.30
2022-09-15T23:59:04.035Z,68.45
